createdAt,value
2022-08-09T00:00:00.950Z,102970.47
2022-08-09T00:02:37.182Z,102975.06
2022-08-09T00:06:19.834Z,102975.47
2022-08-09T00:07:59.947Z,102974.44
2022-08-09T00:10:28.233Z,102960.44
2022-08-09T00:12:55.123Z,102962.69
2022-08-09T00:15:26.364Z,102970.13
2022-08-09T00:18:05.675Z,102972.38
2022-08-09T00:20:42.354Z,102964.31
2022-08-09T00:23:56.599Z,102971.06
2022-08-09T00:26:05.259Z,102970.47
2022-08-09T00:28:34.464Z,102974.00
2022-08-09T00:31:09.164Z,102975.13
2022-08-09T00:33:50.905Z,102964.16
2022-08-09T00:36:20.306Z,102968.56
2022-08-09T00:38:50.960Z,102947.00
2022-08-09T00:44:13.946Z,102959.91
2022-08-09T00:44:15.219Z,102961.66
2022-08-09T00:46:56.854Z,102954.72
2022-08-09T00:49:30.297Z,102963.72
2022-08-09T00:52:05.004Z,102962.69
2022-08-09T00:54:35.978Z,102962.19
2022-08-09T00:57:10.143Z,102965.81
2022-08-09T00:59:41.230Z,102959.75
2022-08-09T01:02:20.221Z,102965.63
2022-08-09T01:04:53.433Z,102961.31
2022-08-09T01:07:38.126Z,102957.06
2022-08-09T01:10:25.849Z,102957.06
2022-08-09T01:13:02.178Z,102949.28
2022-08-09T01:15:40.828Z,102960.28
2022-08-09T01:18:14.208Z,102951.44
2022-08-09T01:20:48.020Z,102954.63
2022-08-09T01:24:01.841Z,102956.44
2022-08-09T01:26:53.589Z,102954.13
2022-08-09T01:29:29.095Z,102959.41
2022-08-09T01:32:31.113Z,102953.06
2022-08-09T01:35:06.990Z,102955.91
2022-08-09T01:38:08.375Z,102961.09
2022-08-09T01:40:35.640Z,102953.19
2022-08-09T01:43:05.275Z,102954.22
2022-08-09T01:45:34.392Z,102958.13
2022-08-09T01:48:12.765Z,102951.78
2022-08-09T01:50:48.047Z,102937.97
2022-08-09T01:53:19.147Z,102952.06
2022-08-09T01:55:48.448Z,102955.25
2022-08-09T01:58:17.443Z,102950.66
2022-08-09T02:00:46.293Z,102957.16
2022-08-09T02:03:19.503Z,102951.97
2022-08-09T02:06:03.528Z,102953.75
2022-08-09T02:08:56.831Z,102961.97
2022-08-09T02:11:24.862Z,102959.75
2022-08-09T02:14:15.005Z,102958.88
2022-08-09T02:17:14.513Z,102958.88
2022-08-09T02:19:43.738Z,102952.19
2022-08-09T02:22:16.948Z,102962.91
2022-08-09T02:24:51.838Z,102952.34
2022-08-09T02:27:21.197Z,102953.47
2022-08-09T02:30:12.250Z,102962.13
2022-08-09T02:32:46.119Z,102969.22
2022-08-09T02:35:23.084Z,102965.75
2022-08-09T02:38:10.024Z,102970.00
2022-08-09T02:40:38.494Z,102968.59
2022-08-09T02:43:08.772Z,102964.50
2022-08-09T02:45:42.756Z,102967.66
2022-08-09T02:48:30.733Z,102970.69
2022-08-09T02:51:01.711Z,102967.63
2022-08-09T02:53:34.639Z,102963.91
2022-08-09T02:56:04.007Z,102961.22
2022-08-09T02:58:37.493Z,102965.09
2022-08-09T03:01:08.173Z,102959.78
2022-08-09T03:04:12.305Z,102962.63
2022-08-09T03:06:27.677Z,102964.38
2022-08-09T03:08:56.109Z,102970.84
2022-08-09T03:12:04.141Z,102963.03
2022-08-09T03:14:12.800Z,102965.81
2022-08-09T03:16:47.583Z,102962.44
2022-08-09T03:19:52.282Z,102962.31
2022-08-09T03:22:12.513Z,102974.06
2022-08-09T03:25:16.159Z,102971.94
2022-08-09T03:27:44.619Z,102973.50
2022-08-09T03:30:13.480Z,102962.44
2022-08-09T03:32:43.145Z,102961.72
2022-08-09T03:35:24.195Z,102964.72
2022-08-09T03:37:56.465Z,102964.72
2022-08-09T03:40:25.806Z,102973.69
2022-08-09T03:42:58.199Z,102970.06
2022-08-09T03:46:05.222Z,102970.06
2022-08-09T03:48:18.773Z,102977.47
2022-08-09T03:50:46.705Z,102970.41
2022-08-09T03:53:16.889Z,102977.47
2022-08-09T03:55:48.311Z,102977.19
2022-08-09T03:58:16.881Z,102988.56
2022-08-09T04:00:45.271Z,102987.41
2022-08-09T04:03:15.300Z,102982.09
2022-08-09T04:05:52.152Z,102984.72
2022-08-09T04:08:19.112Z,102989.16
2022-08-09T04:10:56.157Z,102995.09
2022-08-09T04:14:37.484Z,102993.38
2022-08-09T04:16:20.030Z,102995.09
2022-08-09T04:18:51.287Z,103002.97
2022-08-09T04:21:18.363Z,102997.00
2022-08-09T04:23:54.201Z,103004.00
2022-08-09T04:26:24.791Z,102997.41
2022-08-09T04:29:07.858Z,102997.94
2022-08-09T04:31:47.188Z,103006.38
2022-08-09T04:34:19.058Z,102997.78
2022-08-09T04:36:57.700Z,102989.03
2022-08-09T04:39:25.534Z,102983.63
2022-08-09T04:41:59.805Z,102982.28
2022-08-09T04:44:29.424Z,102980.94
2022-08-09T04:47:05.783Z,102981.56
2022-08-09T04:49:53.381Z,103007.72
2022-08-09T04:52:27.535Z,103011.56
2022-08-09T04:54:56.037Z,103004.72
2022-08-09T04:57:25.084Z,103013.34
2022-08-09T04:59:53.560Z,103008.00
2022-08-09T05:02:20.347Z,103006.09
2022-08-09T05:04:48.599Z,102998.06
2022-08-09T05:07:22.286Z,103001.19
2022-08-09T05:09:50.400Z,103005.34
2022-08-09T05:12:17.260Z,103006.38
2022-08-09T05:14:44.042Z,103003.75
2022-08-09T05:18:36.869Z,103009.66
2022-08-09T05:20:00.040Z,103011.06
2022-08-09T05:22:33.162Z,103016.22
2022-08-09T05:25:02.497Z,103011.44
2022-08-09T05:27:30.361Z,103024.44
2022-08-09T05:29:58.056Z,103022.53
2022-08-09T05:32:26.267Z,103022.28
2022-08-09T05:34:57.149Z,103030.00
2022-08-09T05:37:26.269Z,103037.63
2022-08-09T05:39:53.515Z,103037.88
2022-08-09T05:42:21.620Z,103040.03
2022-08-09T05:45:01.962Z,103038.66
2022-08-09T05:47:30.261Z,103045.31
2022-08-09T05:50:23.401Z,103050.25
2022-08-09T05:52:53.488Z,103052.50
2022-08-09T05:55:21.654Z,103042.31
2022-08-09T05:57:56.129Z,103049.28
2022-08-09T06:00:25.935Z,103048.91
2022-08-09T06:02:56.898Z,103045.53
2022-08-09T06:05:49.936Z,103049.28
2022-08-09T06:08:13.408Z,103046.72
2022-08-09T06:10:46.156Z,103054.22
2022-08-09T06:13:20.397Z,103046.53
2022-08-09T06:15:51.539Z,103066.13
2022-08-09T06:18:23.759Z,103070.63
2022-08-09T06:20:57.919Z,103064.88
2022-08-09T06:23:58.050Z,103065.13
2022-08-09T06:26:20.123Z,103062.34
2022-08-09T06:28:47.469Z,103060.91
2022-08-09T06:31:14.291Z,103070.13
2022-08-09T06:33:42.161Z,103073.88
2022-08-09T06:36:15.788Z,103064.94
2022-08-09T06:38:50.414Z,103070.22
2022-08-09T06:41:18.905Z,103073.28
2022-08-09T06:43:48.141Z,103077.03
2022-08-09T06:46:39.981Z,103077.88
2022-08-09T06:49:01.792Z,103078.19
2022-08-09T06:51:28.875Z,103084.50
2022-08-09T06:54:00.652Z,103082.97
2022-08-09T06:56:30.554Z,103093.94
2022-08-09T07:00:56.360Z,103091.97
2022-08-09T07:01:57.835Z,103096.00
2022-08-09T07:04:30.620Z,103098.16
2022-08-09T07:07:00.373Z,103099.16
2022-08-09T07:09:54.552Z,103102.34
2022-08-09T07:12:18.561Z,103099.63
2022-08-09T07:14:51.180Z,103108.03
2022-08-09T07:17:18.940Z,103098.47
2022-08-09T07:19:48.105Z,103095.56
2022-08-09T07:22:17.989Z,103096.59
2022-08-09T07:24:49.306Z,103090.56
2022-08-09T07:27:27.207Z,103084.69
2022-08-09T07:30:02.281Z,103083.50
2022-08-09T07:32:33.636Z,103093.69
2022-08-09T07:35:02.709Z,103088.31
2022-08-09T07:37:42.944Z,103099.53
2022-08-09T07:40:16.957Z,103097.75
2022-08-09T07:42:55.977Z,103087.91
2022-08-09T07:45:37.573Z,103094.06
2022-08-09T07:48:05.909Z,103093.75
2022-08-09T07:50:36.359Z,103097.75
2022-08-09T07:53:04.615Z,103100.00
2022-08-09T07:55:41.240Z,103101.50
2022-08-09T07:58:21.611Z,103109.81
2022-08-09T08:00:56.103Z,103109.78
2022-08-09T08:03:32.656Z,103106.44
2022-08-09T08:05:59.469Z,103107.00
2022-08-09T08:09:00.004Z,103101.53
2022-08-09T08:12:11.273Z,103099.53
2022-08-09T08:14:02.910Z,103100.81
2022-08-09T08:16:31.887Z,103104.22
2022-08-09T08:19:03.083Z,103105.47
2022-08-09T08:21:31.348Z,103101.50
2022-08-09T08:24:01.217Z,103102.41
2022-08-09T08:26:47.410Z,103105.88
2022-08-09T08:29:27.386Z,103115.81
2022-08-09T08:32:03.152Z,103110.22
2022-08-09T08:34:32.010Z,103114.03
2022-08-09T08:37:01.556Z,103113.88
2022-08-09T08:39:28.546Z,103112.66
2022-08-09T08:41:58.958Z,103119.28
2022-08-09T08:44:29.533Z,103115.66
2022-08-09T08:46:59.620Z,103111.78
2022-08-09T08:49:38.360Z,103112.44
2022-08-09T08:52:24.442Z,103112.38
2022-08-09T08:55:01.380Z,103114.84
2022-08-09T08:57:35.429Z,103110.13
2022-08-09T09:00:08.205Z,103108.06
2022-08-09T09:02:52.593Z,103117.50
2022-08-09T09:05:57.520Z,103108.66
2022-08-09T09:08:29.951Z,103117.25
2022-08-09T09:11:02.001Z,103122.47
2022-08-09T09:13:41.766Z,103122.03
2022-08-09T09:16:29.757Z,103127.03
2022-08-09T09:19:37.688Z,103131.72
2022-08-09T09:22:03.723Z,103123.63
2022-08-09T09:24:34.825Z,103121.28
2022-08-09T09:27:02.878Z,103130.59
2022-08-09T09:30:05.358Z,103130.31
2022-08-09T09:32:21.024Z,103121.69
2022-08-09T09:35:07.691Z,103119.25
2022-08-09T09:37:37.579Z,103115.41
2022-08-09T09:40:09.363Z,103118.50
2022-08-09T09:42:36.393Z,103129.34
2022-08-09T09:45:08.341Z,103131.03
2022-08-09T09:47:47.709Z,103123.75
2022-08-09T09:50:42.043Z,103132.44
2022-08-09T09:53:17.544Z,103125.13
2022-08-09T09:55:57.677Z,103139.28
2022-08-09T09:58:45.332Z,103130.84
2022-08-09T10:01:36.734Z,103134.97
2022-08-09T10:04:12.800Z,103123.16
2022-08-09T10:06:47.079Z,103129.03
2022-08-09T10:09:23.397Z,103134.53
2022-08-09T10:12:11.779Z,103128.66
2022-08-09T10:14:47.759Z,103114.81
2022-08-09T10:17:50.829Z,103117.75
2022-08-09T10:20:31.887Z,103110.53
2022-08-09T10:23:17.134Z,103110.06
2022-08-09T10:26:06.487Z,103103.72
2022-08-09T10:28:34.383Z,103118.78
2022-08-09T10:34:08.782Z,103103.34
2022-08-09T10:36:38.493Z,103112.69
2022-08-09T10:39:16.188Z,103101.03
2022-08-09T10:41:47.928Z,103103.03
2022-08-09T10:44:18.481Z,103106.81
2022-08-09T10:48:13.364Z,103109.72
2022-08-09T10:50:17.593Z,103101.94
2022-08-09T10:53:10.972Z,103104.31
2022-08-09T10:55:57.982Z,103113.06
2022-08-09T10:58:30.907Z,103103.78
2022-08-09T11:03:06.987Z,103112.28
2022-08-09T11:04:28.274Z,103112.13
2022-08-09T11:07:56.896Z,103108.47
2022-08-09T11:10:16.709Z,103111.03
2022-08-09T11:13:51.254Z,103111.25
2022-08-09T11:16:35.156Z,103105.72
2022-08-09T11:19:03.034Z,103099.06
2022-08-09T11:22:10.165Z,103102.34
2022-08-09T11:25:08.094Z,103100.97
2022-08-09T11:28:02.820Z,103102.44
2022-08-09T11:30:36.205Z,103108.22
2022-08-09T11:33:06.009Z,103098.59
2022-08-09T11:35:49.088Z,103098.84
2022-08-09T11:38:18.878Z,103090.44
2022-08-09T11:40:47.742Z,103096.34
2022-08-09T11:43:39.263Z,103095.38
2022-08-09T11:46:06.737Z,103097.63
2022-08-09T11:48:46.125Z,103089.50
2022-08-09T11:52:49.359Z,103093.88
2022-08-09T11:54:14.030Z,103092.44
2022-08-09T11:56:48.258Z,103089.63
2022-08-09T11:59:30.708Z,103088.78
2022-08-09T12:02:18.187Z,103094.63
2022-08-09T12:04:58.102Z,103087.81
2022-08-09T12:07:41.217Z,103090.00
2022-08-09T12:10:14.377Z,103082.66
2022-08-09T12:13:03.704Z,103072.03
2022-08-09T12:15:49.122Z,103086.22
2022-08-09T12:18:30.089Z,103078.69
2022-08-09T12:21:03.211Z,103083.41
2022-08-09T12:23:56.254Z,103079.81
2022-08-09T12:26:19.501Z,103075.78
2022-08-09T12:29:13.650Z,103073.75
2022-08-09T12:32:02.199Z,103071.31
2022-08-09T12:34:34.827Z,103068.81
2022-08-09T12:37:21.393Z,103070.91
2022-08-09T12:40:00.339Z,103072.25
2022-08-09T12:42:28.243Z,103073.72
2022-08-09T12:44:59.470Z,103064.09
2022-08-09T12:47:27.987Z,103053.22
2022-08-09T12:50:23.705Z,103052.44
2022-08-09T12:53:08.065Z,103058.03
2022-08-09T12:56:13.814Z,103054.94
2022-08-09T12:58:28.270Z,103062.22
2022-08-09T13:00:57.830Z,103051.38
2022-08-09T13:03:52.602Z,103049.00
2022-08-09T13:06:25.223Z,103056.59
2022-08-09T13:09:07.627Z,103037.31
2022-08-09T13:11:39.507Z,103039.66
2022-08-09T13:14:41.065Z,103043.31
2022-08-09T13:17:01.039Z,103042.38
2022-08-09T13:20:06.547Z,103042.41
2022-08-09T13:22:37.084Z,103037.16
2022-08-09T13:25:07.619Z,103044.31
2022-08-09T13:27:40.063Z,103045.34
2022-08-09T13:30:50.573Z,103038.81
2022-08-09T13:33:06.679Z,103038.97
2022-08-09T13:36:39.107Z,103040.06
2022-08-09T13:38:54.224Z,103046.09
2022-08-09T13:41:52.252Z,103041.13
2022-08-09T13:43:59.225Z,103035.97
2022-08-09T13:47:16.612Z,103033.00
2022-08-09T13:49:18.172Z,103036.16
2022-08-09T13:52:00.535Z,103039.53
2022-08-09T13:54:30.374Z,103022.31
2022-08-09T13:56:57.323Z,103024.38
2022-08-09T13:59:25.903Z,103025.66
2022-08-09T14:02:04.870Z,103030.13
2022-08-09T14:04:33.412Z,103024.97
2022-08-09T14:07:03.655Z,103023.16
2022-08-09T14:09:31.674Z,103024.97
2022-08-09T14:12:07.073Z,103016.22
2022-08-09T14:14:44.030Z,103022.22
2022-08-09T14:17:12.142Z,103024.66
2022-08-09T14:19:40.876Z,103019.97
2022-08-09T14:22:09.151Z,103025.66
2022-08-09T14:24:35.962Z,103020.41
2022-08-09T14:27:19.846Z,103002.88
2022-08-09T14:30:35.287Z,103012.09
2022-08-09T14:32:34.807Z,103012.69
2022-08-09T14:35:07.635Z,103013.19
2022-08-09T14:37:41.347Z,103012.81
2022-08-09T14:41:00.731Z,103007.28
2022-08-09T14:43:08.599Z,103011.78
2022-08-09T14:46:54.414Z,103004.97
2022-08-09T14:48:22.348Z,103001.56
2022-08-09T14:50:55.122Z,103001.91
2022-08-09T14:53:21.982Z,102998.72
2022-08-09T14:55:50.626Z,102996.22
2022-08-09T14:58:18.366Z,102997.66
2022-08-09T15:00:48.338Z,102996.00
2022-08-09T15:03:20.374Z,102992.06
2022-08-09T15:05:51.278Z,102986.25
2022-08-09T15:08:25.546Z,102985.84
2022-08-09T15:11:01.372Z,102989.97
2022-08-09T15:13:56.663Z,102985.56
2022-08-09T15:16:19.805Z,102989.56
2022-08-09T15:18:49.187Z,102988.53
2022-08-09T15:21:54.979Z,102986.66
2022-08-09T15:24:13.938Z,102994.22
2022-08-09T15:26:46.765Z,102990.41
2022-08-09T15:30:48.818Z,102991.97
2022-08-09T15:32:01.385Z,102992.81
2022-08-09T15:34:33.000Z,102984.88
2022-08-09T15:37:04.276Z,102985.09
2022-08-09T15:39:34.600Z,102963.94
2022-08-09T15:42:11.060Z,102984.25
2022-08-09T15:44:37.933Z,102978.88
2022-08-09T15:47:05.907Z,102987.94
2022-08-09T15:49:40.979Z,102979.13
2022-08-09T15:52:27.692Z,102979.44
2022-08-09T15:54:56.332Z,102981.94
2022-08-09T15:57:35.853Z,102986.03
2022-08-09T16:00:24.663Z,102988.47
2022-08-09T16:02:54.638Z,102979.66
2022-08-09T16:05:23.486Z,102988.38
2022-08-09T16:07:51.183Z,102987.56
2022-08-09T16:10:54.743Z,102990.88
2022-08-09T16:13:19.008Z,102980.53
2022-08-09T16:16:12.230Z,102982.19
2022-08-09T16:18:45.328Z,102975.13
2022-08-09T16:21:12.476Z,102974.16
2022-08-09T16:23:54.910Z,102970.03
2022-08-09T16:26:34.901Z,102974.88
2022-08-09T16:29:10.687Z,102973.41
2022-08-09T16:32:12.642Z,102972.00
2022-08-09T16:34:28.946Z,102970.94
2022-08-09T16:36:56.390Z,102977.34
2022-08-09T16:39:25.756Z,102972.88
2022-08-09T16:42:02.473Z,102968.03
2022-08-09T16:44:31.785Z,102967.66
2022-08-09T16:47:04.170Z,102967.53
2022-08-09T16:50:29.162Z,102970.47
2022-08-09T16:52:32.870Z,102971.94
2022-08-09T16:54:59.823Z,102969.59
2022-08-09T16:58:08.088Z,102975.72
2022-08-09T17:00:15.960Z,102973.28
2022-08-09T17:02:46.361Z,102971.56
2022-08-09T17:05:14.401Z,102973.81
2022-08-09T17:08:45.245Z,102981.16
2022-08-09T17:10:34.423Z,102970.94
2022-08-09T17:13:06.247Z,102974.88
2022-08-09T17:15:59.238Z,102962.19
2022-08-09T17:18:26.941Z,102982.78
2022-08-09T17:20:57.098Z,102964.91
2022-08-09T17:24:21.363Z,102968.75
2022-08-09T17:26:11.026Z,102973.41
2022-08-09T17:28:40.777Z,102969.38
2022-08-09T17:31:07.705Z,102963.81
2022-08-09T17:33:37.622Z,102964.81
2022-08-09T17:36:05.499Z,102964.47
2022-08-09T17:38:39.474Z,102962.13
2022-08-09T17:41:08.085Z,102968.28
2022-08-09T17:43:37.451Z,102961.38
2022-08-09T17:46:09.624Z,102964.59
2022-08-09T17:48:51.909Z,102961.91
2022-08-09T17:51:20.090Z,102952.28
2022-08-09T17:53:52.115Z,102959.69
2022-08-09T17:56:20.844Z,102958.44
2022-08-09T17:58:47.958Z,102962.50
2022-08-09T18:01:23.147Z,102955.97
2022-08-09T18:03:51.370Z,102953.28
2022-08-09T18:06:32.326Z,102942.72
2022-08-09T18:09:03.154Z,102954.03
2022-08-09T18:11:46.991Z,102951.81
2022-08-09T18:14:19.943Z,102951.06
2022-08-09T18:16:49.128Z,102948.13
2022-08-09T18:20:56.206Z,102953.75
2022-08-09T18:22:04.183Z,102954.75
2022-08-09T18:24:31.237Z,102953.25
2022-08-09T18:26:58.138Z,102953.94
2022-08-09T18:30:41.445Z,102955.78
2022-08-09T18:32:19.107Z,102956.00
2022-08-09T18:34:46.079Z,102947.97
2022-08-09T18:37:47.395Z,102957.56
2022-08-09T18:40:02.322Z,102952.38
2022-08-09T18:42:29.628Z,102954.28
2022-08-09T18:44:57.064Z,102943.53
2022-08-09T18:47:36.991Z,102942.38
2022-08-09T18:50:06.097Z,102948.97
2022-08-09T18:52:36.107Z,102952.91
2022-08-09T18:55:03.178Z,102959.72
2022-08-09T18:57:38.632Z,102955.00
2022-08-09T19:00:20.421Z,102952.97
2022-08-09T19:02:50.998Z,102958.09
2022-08-09T19:05:41.446Z,102964.44
2022-08-09T19:08:10.573Z,102952.13
2022-08-09T19:10:41.096Z,102962.19
2022-08-09T19:13:19.279Z,102969.34
2022-08-09T19:15:49.929Z,102967.75
2022-08-09T19:18:33.216Z,102972.28
2022-08-09T19:21:02.563Z,102978.09
2022-08-09T19:24:37.051Z,102990.47
2022-08-09T19:26:16.499Z,102992.34
2022-08-09T19:28:48.839Z,102994.38
2022-08-09T19:31:16.810Z,102995.88
2022-08-09T19:33:45.135Z,102994.25
2022-08-09T19:36:13.395Z,102996.75
2022-08-09T19:38:40.635Z,102999.75
2022-08-09T19:41:10.218Z,103001.69
2022-08-09T19:44:01.498Z,103004.38
2022-08-09T19:46:34.227Z,103005.34
2022-08-09T19:50:08.599Z,103005.97
2022-08-09T19:51:54.921Z,103017.84
2022-08-09T19:54:23.131Z,103013.44
2022-08-09T19:56:52.055Z,103006.13
2022-08-09T19:59:59.665Z,102991.34
2022-08-09T20:02:18.325Z,102991.84
2022-08-09T20:04:55.159Z,103012.31
2022-08-09T20:07:22.779Z,103003.91
2022-08-09T20:09:50.075Z,103017.19
2022-08-09T20:12:30.041Z,103019.22
2022-08-09T20:15:04.730Z,103013.16
2022-08-09T20:17:54.721Z,103011.44
2022-08-09T20:20:24.632Z,103010.94
2022-08-09T20:22:56.499Z,103005.66
2022-08-09T20:25:23.661Z,103011.44
2022-08-09T20:27:51.108Z,103009.81
2022-08-09T20:30:21.694Z,103006.38
2022-08-09T20:32:52.208Z,103004.56
2022-08-09T20:35:19.657Z,103004.22
2022-08-09T20:38:22.020Z,103007.47
2022-08-09T20:40:35.419Z,103009.03
2022-08-09T20:43:18.693Z,102988.38
2022-08-09T20:45:57.745Z,103015.06
2022-08-09T20:48:37.047Z,103010.00
2022-08-09T20:51:05.268Z,102996.56
2022-08-09T20:53:35.283Z,102998.13
2022-08-09T20:56:06.290Z,102996.47
2022-08-09T20:58:35.457Z,103011.75
2022-08-09T21:01:33.327Z,103012.38
2022-08-09T21:05:49.870Z,103009.56
2022-08-09T21:06:42.753Z,103006.78
2022-08-09T21:09:14.065Z,103013.13
2022-08-09T21:14:31.300Z,103006.78
2022-08-09T21:16:59.462Z,103001.81
2022-08-09T21:20:14.550Z,103005.25
2022-08-09T21:22:36.115Z,103004.78
2022-08-09T21:25:20.817Z,103007.59
2022-08-09T21:27:51.889Z,102996.50
2022-08-09T21:30:22.492Z,102992.41
2022-08-09T21:32:50.452Z,103006.38
2022-08-09T21:35:17.455Z,103002.06
2022-08-09T21:37:58.578Z,103003.34
2022-08-09T21:40:30.628Z,103002.75
2022-08-09T21:42:59.886Z,103000.97
2022-08-09T21:45:28.070Z,103005.03
2022-08-09T21:47:55.528Z,103001.09
2022-08-09T21:50:33.834Z,103001.75
2022-08-09T21:53:06.213Z,103004.31
2022-08-09T21:55:34.640Z,103004.03
2022-08-09T21:58:02.565Z,103009.31
2022-08-09T22:00:31.735Z,103006.06
2022-08-09T22:03:01.958Z,103016.63
2022-08-09T22:05:37.720Z,103010.16
2022-08-09T22:08:13.810Z,103009.50
2022-08-09T22:11:49.453Z,103012.59
2022-08-09T22:13:34.306Z,103009.38
2022-08-09T22:16:03.717Z,103003.59
2022-08-09T22:18:30.895Z,103008.78
2022-08-09T22:20:59.800Z,103008.56
2022-08-09T22:23:27.219Z,103006.88
2022-08-09T22:26:12.672Z,103002.25
2022-08-09T22:28:54.279Z,102995.91
2022-08-09T22:31:21.231Z,102995.91
2022-08-09T22:33:55.678Z,102995.91
2022-08-09T22:36:23.613Z,102986.84
2022-08-09T22:38:50.659Z,102991.75
2022-08-09T22:41:19.477Z,102991.50
2022-08-09T22:44:03.365Z,102984.00
2022-08-09T22:48:18.482Z,102991.69
2022-08-09T22:49:18.966Z,102989.81
2022-08-09T22:51:53.542Z,102988.16
2022-08-09T22:54:26.998Z,102989.41
2022-08-09T22:56:57.051Z,102987.25
2022-08-09T22:59:57.215Z,102988.59
2022-08-09T23:02:15.762Z,102991.75
2022-08-09T23:04:53.309Z,102982.47
2022-08-09T23:08:27.792Z,102983.75
2022-08-09T23:10:43.693Z,102982.88
2022-08-09T23:13:12.850Z,102987.31
2022-08-09T23:15:39.968Z,102984.31
2022-08-09T23:18:06.988Z,102981.41
2022-08-09T23:20:33.834Z,102980.53
2022-08-09T23:23:00.676Z,102974.53
2022-08-09T23:25:27.758Z,102978.78
2022-08-09T23:27:57.439Z,102981.16
2022-08-09T23:30:51.624Z,102980.22
2022-08-09T23:33:19.470Z,102978.09
2022-08-09T23:36:06.954Z,102970.31
2022-08-09T23:38:33.082Z,102979.53
2022-08-09T23:40:59.900Z,102979.94
2022-08-09T23:43:28.129Z,102979.66
2022-08-09T23:45:54.966Z,102971.19
2022-08-09T23:48:21.819Z,102973.47
2022-08-09T23:50:48.766Z,102930.19
2022-08-09T23:53:15.679Z,102977.78
2022-08-09T23:55:49.507Z,102976.38
2022-08-09T23:58:26.170Z,102965.13
